• Join FlightAware (Why Join?)
  • Login
  • US Flag 
08:19AM EDT


 

Airport Tracker/Info


-or-


 

Live Flight TrackerFlight Track Log ✈ N28295 ✈ 29-Sep-2013 ✈ 2G9 - KFME

Flight Track Log - Related Links

Times and Time Zones

All times are in EDT time to prevent confusion due to time zone crossing. See the N28295 flight status page for this flight to view local times or setup timezone preferences in your user account.

Time Position Orientation Groundspeed Altitude Reporting Facility
EDT Latitude Longitude Course Direction KTS MPH feet Rate Location/Type
08:10PM 40.0197 -78.9733 129° Southeast 80 92 3,900  Level Cleveland Center
08:10PM 40.0122 -78.9614 129° Southeast 82 94 4,200 600 Climbing Cleveland Center
08:11PM 40.0000 -78.9325 119° Southeast 93 107 4,900 600 Climbing Cleveland Center
08:12PM 39.9992 -78.9272 102° East 90 104 5,000 480 Climbing Cleveland Center
08:13PM 39.9858 -78.9006 123° Southeast 100 115 5,400 540 Climbing Cleveland Center
08:13PM 39.9814 -78.8897 118° Southeast 96 110 5,600 60 Climbing Cleveland Center
08:14PM 39.9700 -78.8628 119° Southeast 124 143 5,500  Descending Cleveland Center
08:14PM 39.9661 -78.8514 114° Southeast 104 120 5,600  Climbing Cleveland Center
08:15PM 39.9506 -78.8167 120° Southeast 138 159 5,500  Descending Cleveland Center
08:15PM 39.9478 -78.8092 116° Southeast 122 140 5,600  Climbing Cleveland Center
08:16PM 39.9331 -78.7761 120° Southeast 135 155 5,500  Descending Cleveland Center
08:16PM 39.9297 -78.7647 111° Southeast 135 155 5,600  Climbing Cleveland Center
08:17PM 39.9156 -78.7331 120° Southeast 133 153 5,500  Descending Cleveland Center
08:17PM 39.9133 -78.7225 105° East 133 153 5,600 60 Climbing Cleveland Center
08:18PM 39.8919 -78.6697 118° Southeast 137 158 5,600  Level Cleveland Center
08:19PM 39.8747 -78.6281 118° Southeast 134 154 5,600  Level Cleveland Center
08:20PM 39.8572 -78.5844 118° Southeast 136 157 5,600  Level Cleveland Center
08:21PM 39.8386 -78.5408 119° Southeast 139 160 5,600  Level Cleveland Center
08:22PM 39.8219 -78.4942 115° Southeast 143 165 5,600  Level Cleveland Center
08:23PM 39.8006 -78.4439 119° Southeast 137 158 5,600  Level Cleveland Center
08:24PM 39.7822 -78.4011 119° Southeast 137 158 5,600  Level Cleveland Center
08:25PM 39.7650 -78.3614 119° Southeast 136 157 5,600  Level Cleveland Center
08:26PM 39.7444 -78.3089 117° Southeast 136 157 5,600  Level Cleveland Center
08:27PM 39.7264 -78.2669 119° Southeast 135 155 5,600  Level Cleveland Center
08:28PM 39.7081 -78.2244 119° Southeast 135 155 5,600  Level Cleveland Center
08:29PM 39.6908 -78.1825 118° Southeast 133 153 5,600  Level Cleveland Center
08:30PM 39.6717 -78.1406 121° Southeast 133 153 5,600  Level Cleveland Center
08:31PM 39.6533 -78.0986 120° Southeast 134 154 5,600  Level Cleveland Center
08:32PM 39.6356 -78.0556 118° Southeast 135 155 5,600 -180 Level Cleveland Center
08:33PM 39.6144 -78.0133 123° Southeast 134 154 5,300 -660 Descending Washington Center
08:34PM 39.5986 -77.9697 115° Southeast 134 154 4,400 -900 Descending Washington Center
08:35PM 39.5806 -77.9314 121° Southeast 134 154 3,500 -540 Descending Washington Center
08:36PM 39.5644 -77.8958 120° Southeast 127 146 3,400 -60 Descending Washington Center
08:37PM 39.5486 -77.8550 117° Southeast 122 140 3,400  Level Washington Center
08:38PM 39.5328 -77.8142 117° Southeast 122 140 3,400  Level Washington Center
08:39PM 39.5167 -77.7758 119° Southeast 122 140 3,400  Level Washington Center
08:40PM 39.5008 -77.7378 118° Southeast 122 140 3,400  Level Washington Center
08:41PM 39.4828 -77.6994 121° Southeast 122 140 3,400 -60 Level Washington Center
08:43PM 39.4500 -77.6167 117° Southeast 122 140 3,300 -60 Descending Potomac TRACON
08:44PM 39.4333 -77.5667 113° Southeast 123 142 3,300  Level Potomac TRACON
08:46PM 39.4000 -77.5000 123° Southeast 127 146 3,300  Level Potomac TRACON
08:47PM 39.3833 -77.4500 113° Southeast 125 144 3,300  Level Potomac TRACON
08:48PM 39.3667 -77.4167 123° Southeast 127 146 3,300  Level Potomac TRACON
08:50PM 39.3500 -77.3667 113° Southeast 128 147 3,300  Level Potomac TRACON
08:51PM 39.3333 -77.3333 123° Southeast 126 145 3,300  Level Potomac TRACON
08:53PM 39.3000 -77.2500 117° Southeast 124 143 3,300  Level Potomac TRACON
08:54PM 39.2833 -77.2167 123° Southeast 125 144 3,300  Level Potomac TRACON
08:55PM 39.2667 -77.1833 123° Southeast 123 142 3,300 -300 Level Potomac TRACON
08:58PM 39.2167 -77.0667 119° Southeast 125 144 2,300 -300 Descending Potomac TRACON
08:59PM 39.2000 -77.0167 113° Southeast 126 145 2,300 -300 Level Potomac TRACON
09:02PM 39.1500 -76.9000 119° Southeast 128 147 1,300 -300 Descending Potomac TRACON
09:02PM 39.1333 -76.8667 123° Southeast 133 153 1,200 -180 Descending Potomac TRACON
09:04PM 39.1000 -76.8333 142° Southeast 129 148 1,000 -300 Descending Potomac TRACON
09:05PM 39.0833 -76.8000 123° Southeast 76 87 600 -420 Descending Potomac TRACON